sensor_id;sensor_type;location;lat;lon;timestamp;pressure;altitude;pressure_sealevel;temperature;humidity
73600;BME280;61877;48.246;9.220;2023-04-30T05:57:18;94308.56;;;10.53;80.32
73600;BME280;61877;48.246;9.220;2023-04-30T05:59:44;94309.41;;;10.66;79.33
73600;BME280;61877;48.246;9.220;2023-04-30T06:02:10;94312.63;;;10.59;79.86
73600;BME280;61877;48.246;9.220;2023-04-30T06:04:35;94311.28;;;10.65;79.44
73600;BME280;61877;48.246;9.220;2023-04-30T06:07:01;94316.56;;;10.74;79.50
73600;BME280;61877;48.246;9.220;2023-04-30T06:09:35;94310.44;;;10.85;77.86
73600;BME280;61877;48.246;9.220;2023-04-30T06:12:01;94310.47;;;10.53;78.86
73600;BME280;61877;48.246;9.220;2023-04-30T06:14:30;94318.22;;;10.66;80.28
73600;BME280;61877;48.246;9.220;2023-04-30T06:16:56;94318.69;;;10.80;78.15
73600;BME280;61877;48.246;9.220;2023-04-30T06:35:06;94313.50;;;10.96;77.85
73600;BME280;61877;48.246;9.220;2023-04-30T07:47:07;94304.38;;;12.95;65.25
73600;BME280;61877;48.246;9.220;2023-04-30T07:49:32;94299.06;;;13.26;63.84
73600;BME280;61877;48.246;9.220;2023-04-30T07:51:58;94301.91;;;13.64;63.16
73600;BME280;61877;48.246;9.220;2023-04-30T07:54:24;94311.06;;;13.79;61.50
73600;BME280;61877;48.246;9.220;2023-04-30T07:56:49;94304.69;;;14.21;60.84
73600;BME280;61877;48.246;9.220;2023-04-30T07:59:14;94308.06;;;14.34;60.62
73600;BME280;61877;48.246;9.220;2023-04-30T08:01:40;94310.13;;;14.41;60.62
73600;BME280;61877;48.246;9.220;2023-04-30T08:04:07;94316.09;;;14.69;59.59
73600;BME280;61877;48.246;9.220;2023-04-30T08:06:32;94312.38;;;14.77;59.27
73600;BME280;61877;48.246;9.220;2023-04-30T08:08:57;94319.97;;;14.71;58.58
73600;BME280;61877;48.246;9.220;2023-04-30T08:11:23;94316.03;;;15.07;57.92
73600;BME280;61877;48.246;9.220;2023-04-30T08:13:48;94308.56;;;15.23;58.16
73600;BME280;61877;48.246;9.220;2023-04-30T08:16:29;94306.75;;;15.08;57.18
73600;BME280;61877;48.246;9.220;2023-04-30T08:19:03;94314.44;;;15.06;57.75
73600;BME280;61877;48.246;9.220;2023-04-30T08:21:33;94318.06;;;15.36;57.68
73600;BME280;61877;48.246;9.220;2023-04-30T08:23:59;94310.69;;;15.56;56.03
73600;BME280;61877;48.246;9.220;2023-04-30T08:26:24;94310.19;;;15.73;55.65
73600;BME280;61877;48.246;9.220;2023-04-30T08:28:50;94314.91;;;15.79;54.40
73600;BME280;61877;48.246;9.220;2023-04-30T08:31:16;94315.63;;;16.02;54.03
73600;BME280;61877;48.246;9.220;2023-04-30T08:33:41;94315.50;;;15.92;54.30
73600;BME280;61877;48.246;9.220;2023-04-30T08:36:06;94317.50;;;15.72;53.84
73600;BME280;61877;48.246;9.220;2023-04-30T08:38:33;94311.00;;;16.03;55.66
73600;BME280;61877;48.246;9.220;2023-04-30T08:41:04;94302.94;;;16.65;53.03
73600;BME280;61877;48.246;9.220;2023-04-30T08:43:33;94307.78;;;16.23;54.49
73600;BME280;61877;48.246;9.220;2023-04-30T08:45:58;94299.34;;;16.25;53.69
73600;BME280;61877;48.246;9.220;2023-04-30T08:48:24;94299.03;;;16.59;52.58
73600;BME280;61877;48.246;9.220;2023-04-30T08:50:52;94298.34;;;17.03;54.00
73600;BME280;61877;48.246;9.220;2023-04-30T08:53:18;94299.91;;;17.07;51.51
73600;BME280;61877;48.246;9.220;2023-04-30T08:55:46;94299.47;;;17.42;49.06
73600;BME280;61877;48.246;9.220;2023-04-30T08:58:12;94287.47;;;17.90;47.52
73600;BME280;61877;48.246;9.220;2023-04-30T09:00:40;94300.41;;;16.46;49.90
73600;BME280;61877;48.246;9.220;2023-04-30T09:03:06;94294.72;;;16.29;49.35
73600;BME280;61877;48.246;9.220;2023-04-30T09:05:35;94299.81;;;16.63;48.89
73600;BME280;61877;48.246;9.220;2023-04-30T09:08:05;94297.72;;;16.20;50.27
73600;BME280;61877;48.246;9.220;2023-04-30T09:10:31;94295.97;;;16.64;50.89
73600;BME280;61877;48.246;9.220;2023-04-30T09:12:59;94299.66;;;16.83;48.55
73600;BME280;61877;48.246;9.220;2023-04-30T09:15:27;94299.34;;;16.54;47.87
73600;BME280;61877;48.246;9.220;2023-04-30T09:18:07;94291.19;;;17.28;47.61
73600;BME280;61877;48.246;9.220;2023-04-30T09:20:32;94300.47;;;17.67;46.77
73600;BME280;61877;48.246;9.220;2023-04-30T09:23:04;94299.31;;;17.28;48.80
73600;BME280;61877;48.246;9.220;2023-04-30T09:25:37;94294.03;;;17.42;46.57
73600;BME280;61877;48.246;9.220;2023-04-30T09:28:08;94302.59;;;17.04;48.73
73600;BME280;61877;48.246;9.220;2023-04-30T09:30:33;94297.41;;;16.55;49.68
73600;BME280;61877;48.246;9.220;2023-04-30T09:32:59;94307.78;;;16.83;48.45
73600;BME280;61877;48.246;9.220;2023-04-30T09:35:28;94309.13;;;16.07;48.82
73600;BME280;61877;48.246;9.220;2023-04-30T09:38:27;94299.91;;;15.85;48.00
73600;BME280;61877;48.246;9.220;2023-04-30T09:40:52;94317.91;;;15.97;50.41
73600;BME280;61877;48.246;9.220;2023-04-30T09:43:19;94309.59;;;16.12;50.00
73600;BME280;61877;48.246;9.220;2023-04-30T09:45:46;94304.50;;;16.37;47.52
73600;BME280;61877;48.246;9.220;2023-04-30T09:48:14;94300.28;;;17.06;47.71
73600;BME280;61877;48.246;9.220;2023-04-30T09:50:40;94296.16;;;17.19;48.61
73600;BME280;61877;48.246;9.220;2023-04-30T09:53:06;94303.47;;;16.78;47.34
73600;BME280;61877;48.246;9.220;2023-04-30T09:55:32;94303.44;;;17.11;47.23
73600;BME280;61877;48.246;9.220;2023-04-30T09:57:58;94301.22;;;17.20;46.12
73600;BME280;61877;48.246;9.220;2023-04-30T10:00:25;94304.09;;;16.98;45.68
73600;BME280;61877;48.246;9.220;2023-04-30T10:02:51;94311.81;;;16.03;46.46
73600;BME280;61877;48.246;9.220;2023-04-30T10:05:17;94308.09;;;16.44;47.11
73600;BME280;61877;48.246;9.220;2023-04-30T10:07:43;94300.88;;;16.26;47.90
73600;BME280;61877;48.246;9.220;2023-04-30T10:10:09;94297.81;;;16.27;48.60
73600;BME280;61877;48.246;9.220;2023-04-30T10:12:41;94300.13;;;16.92;48.75
73600;BME280;61877;48.246;9.220;2023-04-30T10:15:12;94299.69;;;17.23;48.92
73600;BME280;61877;48.246;9.220;2023-04-30T10:17:40;94303.78;;;17.46;45.64
73600;BME280;61877;48.246;9.220;2023-04-30T10:20:09;94309.25;;;17.13;47.13
73600;BME280;61877;48.246;9.220;2023-04-30T10:22:36;94302.72;;;17.14;45.11
73600;BME280;61877;48.246;9.220;2023-04-30T10:25:02;94295.84;;;17.71;43.65
73600;BME280;61877;48.246;9.220;2023-04-30T10:27:28;94296.78;;;17.96;44.99
73600;BME280;61877;48.246;9.220;2023-04-30T10:29:53;94290.88;;;16.93;44.58
73600;BME280;61877;48.246;9.220;2023-04-30T10:32:22;94289.34;;;17.35;45.41
73600;BME280;61877;48.246;9.220;2023-04-30T10:34:58;94290.34;;;17.20;46.31
73600;BME280;61877;48.246;9.220;2023-04-30T10:37:33;94293.81;;;17.57;44.90
73600;BME280;61877;48.246;9.220;2023-04-30T10:40:08;94287.78;;;17.81;45.32
73600;BME280;61877;48.246;9.220;2023-04-30T10:42:36;94298.97;;;17.29;45.37
73600;BME280;61877;48.246;9.220;2023-04-30T10:45:01;94289.22;;;17.25;46.45
73600;BME280;61877;48.246;9.220;2023-04-30T10:47:28;94290.16;;;17.43;46.61
73600;BME280;61877;48.246;9.220;2023-04-30T10:50:01;94287.50;;;17.03;45.26
73600;BME280;61877;48.246;9.220;2023-04-30T10:52:28;94277.84;;;17.45;45.89
73600;BME280;61877;48.246;9.220;2023-04-30T10:54:54;94267.06;;;17.12;44.72
73600;BME280;61877;48.246;9.220;2023-04-30T10:57:20;94273.19;;;17.06;45.33
73600;BME280;61877;48.246;9.220;2023-04-30T10:59:51;94269.56;;;17.35;45.98
73600;BME280;61877;48.246;9.220;2023-04-30T11:02:17;94275.41;;;17.37;45.62
73600;BME280;61877;48.246;9.220;2023-04-30T11:05:17;94271.94;;;17.40;45.95
73600;BME280;61877;48.246;9.220;2023-04-30T11:07:50;94273.59;;;17.08;46.36
73600;BME280;61877;48.246;9.220;2023-04-30T11:10:16;94270.56;;;17.16;46.89
73600;BME280;61877;48.246;9.220;2023-04-30T11:12:48;94267.25;;;17.37;45.37
73600;BME280;61877;48.246;9.220;2023-04-30T11:15:15;94268.25;;;17.58;46.48
73600;BME280;61877;48.246;9.220;2023-04-30T11:17:44;94265.91;;;17.57;44.17
73600;BME280;61877;48.246;9.220;2023-04-30T11:20:17;94258.94;;;17.16;44.15
73600;BME280;61877;48.246;9.220;2023-04-30T11:22:45;94258.53;;;18.15;44.31
73600;BME280;61877;48.246;9.220;2023-04-30T11:25:12;94257.44;;;18.37;43.15
73600;BME280;61877;48.246;9.220;2023-04-30T11:27:40;94252.47;;;18.43;43.15
73600;BME280;61877;48.246;9.220;2023-04-30T11:30:11;94250.19;;;18.59;43.25
73600;BME280;61877;48.246;9.220;2023-04-30T11:32:38;94245.66;;;19.12;42.41
73600;BME280;61877;48.246;9.220;2023-04-30T11:35:05;94245.59;;;18.84;41.74
73600;BME280;61877;48.246;9.220;2023-04-30T11:37:32;94250.19;;;18.55;44.06
73600;BME280;61877;48.246;9.220;2023-04-30T11:40:04;94239.41;;;18.87;41.84
73600;BME280;61877;48.246;9.220;2023-04-30T11:42:32;94231.63;;;18.78;41.68
73600;BME280;61877;48.246;9.220;2023-04-30T11:45:05;94236.28;;;18.81;41.04
73600;BME280;61877;48.246;9.220;2023-04-30T11:47:46;94242.47;;;18.68;41.79
73600;BME280;61877;48.246;9.220;2023-04-30T11:50:18;94235.16;;;19.10;40.98
73600;BME280;61877;48.246;9.220;2023-04-30T11:52:48;94232.00;;;18.84;42.82
73600;BME280;61877;48.246;9.220;2023-04-30T11:55:17;94233.63;;;19.16;40.95
73600;BME280;61877;48.246;9.220;2023-04-30T11:57:44;94235.53;;;18.91;40.95
73600;BME280;61877;48.246;9.220;2023-04-30T12:00:12;94235.47;;;18.74;41.47
73600;BME280;61877;48.246;9.220;2023-04-30T12:02:38;94232.41;;;18.89;42.58
73600;BME280;61877;48.246;9.220;2023-04-30T12:05:04;94230.53;;;19.14;40.76
73600;BME280;61877;48.246;9.220;2023-04-30T12:07:30;94236.75;;;19.15;41.61
73600;BME280;61877;48.246;9.220;2023-04-30T12:09:55;94237.94;;;19.35;41.27
73600;BME280;61877;48.246;9.220;2023-04-30T12:12:28;94226.97;;;18.82;42.23
73600;BME280;61877;48.246;9.220;2023-04-30T12:14:54;94233.03;;;18.41;43.86
73600;BME280;61877;48.246;9.220;2023-04-30T12:17:30;94239.28;;;18.45;42.88
73600;BME280;61877;48.246;9.220;2023-04-30T12:19:56;94232.16;;;18.23;43.82
73600;BME280;61877;48.246;9.220;2023-04-30T12:22:21;94239.00;;;17.92;44.85
73600;BME280;61877;48.246;9.220;2023-04-30T12:24:48;94231.41;;;18.22;44.07
73600;BME280;61877;48.246;9.220;2023-04-30T12:27:13;94220.50;;;18.12;42.08
73600;BME280;61877;48.246;9.220;2023-04-30T12:29:43;94218.47;;;17.94;43.07
73600;BME280;61877;48.246;9.220;2023-04-30T12:32:08;94226.19;;;17.89;43.86
73600;BME280;61877;48.246;9.220;2023-04-30T12:34:36;94217.91;;;17.68;43.20
73600;BME280;61877;48.246;9.220;2023-04-30T12:37:02;94229.13;;;18.38;43.85
73600;BME280;61877;48.246;9.220;2023-04-30T12:39:32;94218.75;;;18.61;42.79
73600;BME280;61877;48.246;9.220;2023-04-30T12:41:59;94219.56;;;18.65;44.33
73600;BME280;61877;48.246;9.220;2023-04-30T12:44:26;94223.00;;;18.52;43.89
73600;BME280;61877;48.246;9.220;2023-04-30T12:46:53;94213.09;;;18.05;42.03
73600;BME280;61877;48.246;9.220;2023-04-30T12:49:23;94213.97;;;17.55;43.54
73600;BME280;61877;48.246;9.220;2023-04-30T12:51:49;94208.66;;;17.22;44.07
73600;BME280;61877;48.246;9.220;2023-04-30T12:54:14;94211.09;;;16.90;45.78
73600;BME280;61877;48.246;9.220;2023-04-30T12:56:58;94210.47;;;17.07;47.15
73600;BME280;61877;48.246;9.220;2023-04-30T12:59:23;94205.09;;;16.70;45.23
73600;BME280;61877;48.246;9.220;2023-04-30T13:01:49;94197.16;;;16.92;46.94
73600;BME280;61877;48.246;9.220;2023-04-30T13:04:16;94208.34;;;17.34;46.55
73600;BME280;61877;48.246;9.220;2023-04-30T13:06:41;94199.19;;;17.49;44.58
73600;BME280;61877;48.246;9.220;2023-04-30T13:09:06;94199.53;;;18.09;45.61
73600;BME280;61877;48.246;9.220;2023-04-30T13:11:32;94207.16;;;18.75;43.46
73600;BME280;61877;48.246;9.220;2023-04-30T13:13:57;94203.69;;;18.85;43.02
73600;BME280;61877;48.246;9.220;2023-04-30T13:16:22;94202.19;;;19.58;40.75
73600;BME280;61877;48.246;9.220;2023-04-30T13:18:48;94197.47;;;19.79;41.87
73600;BME280;61877;48.246;9.220;2023-04-30T13:21:15;94195.94;;;19.68;41.17
73600;BME280;61877;48.246;9.220;2023-04-30T13:23:40;94202.56;;;19.56;43.47
73600;BME280;61877;48.246;9.220;2023-04-30T13:26:05;94191.97;;;19.90;39.02
73600;BME280;61877;48.246;9.220;2023-04-30T13:28:31;94187.88;;;20.58;39.58
73600;BME280;61877;48.246;9.220;2023-04-30T13:30:56;94188.50;;;20.83;38.52
73600;BME280;61877;48.246;9.220;2023-04-30T13:33:21;94180.09;;;20.56;39.49
73600;BME280;61877;48.246;9.220;2023-04-30T13:35:47;94187.63;;;21.03;36.88
73600;BME280;61877;48.246;9.220;2023-04-30T13:38:16;94179.84;;;22.27;34.63
73600;BME280;61877;48.246;9.220;2023-04-30T13:40:42;94179.44;;;21.95;35.55
73600;BME280;61877;48.246;9.220;2023-04-30T13:43:07;94178.97;;;21.15;37.50
73600;BME280;61877;48.246;9.220;2023-04-30T13:45:34;94176.94;;;20.61;36.41
73600;BME280;61877;48.246;9.220;2023-04-30T13:48:00;94167.22;;;22.97;35.58
73600;BME280;61877;48.246;9.220;2023-04-30T13:50:26;94173.34;;;22.48;34.93
73600;BME280;61877;48.246;9.220;2023-04-30T13:52:51;94162.63;;;23.17;33.87
73600;BME280;61877;48.246;9.220;2023-04-30T13:55:19;94166.50;;;22.33;32.68
73600;BME280;61877;48.246;9.220;2023-04-30T13:57:44;94168.75;;;21.23;36.05
73600;BME280;61877;48.246;9.220;2023-04-30T14:00:13;94171.69;;;20.26;37.32
73600;BME280;61877;48.246;9.220;2023-04-30T14:02:38;94166.25;;;20.19;39.99
73600;BME280;61877;48.246;9.220;2023-04-30T14:05:07;94159.03;;;19.39;37.71
73600;BME280;61877;48.246;9.220;2023-04-30T14:07:33;94147.75;;;19.51;37.92
73600;BME280;61877;48.246;9.220;2023-04-30T14:10:01;94148.47;;;19.72;39.57
73600;BME280;61877;48.246;9.220;2023-04-30T14:12:29;94149.31;;;19.31;40.38
73600;BME280;61877;48.246;9.220;2023-04-30T14:14:54;94140.31;;;19.76;37.44
73600;BME280;61877;48.246;9.220;2023-04-30T14:17:20;94147.28;;;19.84;37.76
73600;BME280;61877;48.246;9.220;2023-04-30T14:20:00;94144.00;;;21.00;36.57
73600;BME280;61877;48.246;9.220;2023-04-30T14:22:31;94150.56;;;20.44;36.80
73600;BME280;61877;48.246;9.220;2023-04-30T14:24:56;94147.25;;;19.91;35.90
73600;BME280;61877;48.246;9.220;2023-04-30T14:27:30;94142.94;;;21.34;35.72
73600;BME280;61877;48.246;9.220;2023-04-30T14:30:07;94139.88;;;21.69;34.32
73600;BME280;61877;48.246;9.220;2023-04-30T14:32:32;94146.75;;;21.44;34.92
73600;BME280;61877;48.246;9.220;2023-04-30T14:35:00;94142.69;;;20.60;36.54
73600;BME280;61877;48.246;9.220;2023-04-30T14:37:32;94155.25;;;20.36;38.05
73600;BME280;61877;48.246;9.220;2023-04-30T14:39:59;94148.75;;;20.16;37.51
73600;BME280;61877;48.246;9.220;2023-04-30T14:42:24;94148.31;;;20.25;39.01
73600;BME280;61877;48.246;9.220;2023-04-30T14:44:51;94148.34;;;20.14;38.52
73600;BME280;61877;48.246;9.220;2023-04-30T14:47:23;94146.81;;;20.86;36.55
73600;BME280;61877;48.246;9.220;2023-04-30T14:50:05;94140.19;;;20.14;37.63
73600;BME280;61877;48.246;9.220;2023-04-30T14:52:35;94141.91;;;19.56;38.87
73600;BME280;61877;48.246;9.220;2023-04-30T14:55:01;94143.88;;;19.45;40.59
73600;BME280;61877;48.246;9.220;2023-04-30T14:57:45;94145.81;;;18.70;39.68
73600;BME280;61877;48.246;9.220;2023-04-30T15:00:16;94142.34;;;19.30;41.40
73600;BME280;61877;48.246;9.220;2023-04-30T15:02:51;94130.97;;;19.77;38.74
73600;BME280;61877;48.246;9.220;2023-04-30T15:05:22;94129.09;;;19.10;39.85
73600;BME280;61877;48.246;9.220;2023-04-30T15:07:50;94127.56;;;19.45;40.85
73600;BME280;61877;48.246;9.220;2023-04-30T15:10:15;94139.59;;;19.12;40.15
73600;BME280;61877;48.246;9.220;2023-04-30T15:12:41;94136.91;;;19.01;40.63
73600;BME280;61877;48.246;9.220;2023-04-30T15:15:07;94140.78;;;19.36;41.40
73600;BME280;61877;48.246;9.220;2023-04-30T15:17:34;94125.94;;;20.62;37.44
73600;BME280;61877;48.246;9.220;2023-04-30T15:20:04;94130.84;;;20.19;37.40
73600;BME280;61877;48.246;9.220;2023-04-30T15:22:34;94119.75;;;19.61;40.32
73600;BME280;61877;48.246;9.220;2023-04-30T15:25:08;94134.94;;;19.16;41.20
73600;BME280;61877;48.246;9.220;2023-04-30T15:27:37;94129.78;;;18.37;42.78
73600;BME280;61877;48.246;9.220;2023-04-30T15:30:04;94132.97;;;18.57;41.62
73600;BME280;61877;48.246;9.220;2023-04-30T15:32:30;94130.28;;;18.78;42.51
73600;BME280;61877;48.246;9.220;2023-04-30T15:34:57;94117.34;;;19.77;39.38
73600;BME280;61877;48.246;9.220;2023-04-30T15:37:22;94126.28;;;19.81;39.97
73600;BME280;61877;48.246;9.220;2023-04-30T15:39:47;94118.25;;;19.00;40.23
73600;BME280;61877;48.246;9.220;2023-04-30T15:42:15;94128.34;;;18.78;40.08
73600;BME280;61877;48.246;9.220;2023-04-30T15:44:45;94131.41;;;18.52;41.45
73600;BME280;61877;48.246;9.220;2023-04-30T15:47:12;94116.28;;;19.46;40.31
73600;BME280;61877;48.246;9.220;2023-04-30T15:49:40;94116.38;;;20.32;36.92
73600;BME280;61877;48.246;9.220;2023-04-30T15:52:10;94113.44;;;19.85;37.23
73600;BME280;61877;48.246;9.220;2023-04-30T15:54:37;94114.66;;;19.70;39.97
73600;BME280;61877;48.246;9.220;2023-04-30T15:57:03;94108.88;;;19.22;39.93
73600;BME280;61877;48.246;9.220;2023-04-30T15:59:29;94105.78;;;18.46;41.14
73600;BME280;61877;48.246;9.220;2023-04-30T16:02:01;94111.88;;;18.12;44.46
73600;BME280;61877;48.246;9.220;2023-04-30T16:04:27;94114.06;;;17.78;43.47
73600;BME280;61877;48.246;9.220;2023-04-30T16:06:53;94116.38;;;17.69;44.42
73600;BME280;61877;48.246;9.220;2023-04-30T16:09:20;94106.28;;;17.62;45.61
73600;BME280;61877;48.246;9.220;2023-04-30T16:11:48;94109.22;;;17.43;45.42
73600;BME280;61877;48.246;9.220;2023-04-30T16:14:14;94104.47;;;17.23;47.71
73600;BME280;61877;48.246;9.220;2023-04-30T16:16:42;94102.19;;;17.32;45.03
73600;BME280;61877;48.246;9.220;2023-04-30T16:19:08;94100.44;;;17.57;44.52
73600;BME280;61877;48.246;9.220;2023-04-30T16:21:34;94099.72;;;17.74;46.12
73600;BME280;61877;48.246;9.220;2023-04-30T16:24:00;94103.72;;;18.04;44.52
73600;BME280;61877;48.246;9.220;2023-04-30T16:26:28;94097.91;;;17.99;43.29
73600;BME280;61877;48.246;9.220;2023-04-30T16:28:54;94097.03;;;17.84;44.55
73600;BME280;61877;48.246;9.220;2023-04-30T16:31:23;94090.28;;;17.47;44.76
73600;BME280;61877;48.246;9.220;2023-04-30T16:33:49;94101.22;;;17.61;45.68
73600;BME280;61877;48.246;9.220;2023-04-30T16:36:15;94100.88;;;17.73;45.48
73600;BME280;61877;48.246;9.220;2023-04-30T16:38:47;94098.25;;;17.97;45.05
73600;BME280;61877;48.246;9.220;2023-04-30T16:41:13;94095.44;;;17.69;45.62
73600;BME280;61877;48.246;9.220;2023-04-30T16:43:40;94097.59;;;17.43;45.63
73600;BME280;61877;48.246;9.220;2023-04-30T16:46:09;94102.19;;;17.32;45.94
73600;BME280;61877;48.246;9.220;2023-04-30T16:48:35;94101.53;;;16.91;46.74
73600;BME280;61877;48.246;9.220;2023-04-30T16:51:00;94095.13;;;16.26;47.27
73600;BME280;61877;48.246;9.220;2023-04-30T16:53:28;94095.63;;;16.38;49.73
73600;BME280;61877;48.246;9.220;2023-04-30T16:55:55;94099.97;;;16.06;49.14
73600;BME280;61877;48.246;9.220;2023-04-30T16:58:24;94107.34;;;15.76;48.99
73600;BME280;61877;48.246;9.220;2023-04-30T17:00:52;94106.28;;;15.84;49.84
73600;BME280;61877;48.246;9.220;2023-04-30T17:03:20;94095.09;;;15.86;50.34
73600;BME280;61877;48.246;9.220;2023-04-30T17:05:46;94100.78;;;15.44;49.43
73600;BME280;61877;48.246;9.220;2023-04-30T17:08:13;94101.09;;;15.39;51.47
73600;BME280;61877;48.246;9.220;2023-04-30T17:10:43;94108.41;;;15.38;52.34
73600;BME280;61877;48.246;9.220;2023-04-30T17:13:09;94113.94;;;15.19;51.58
73600;BME280;61877;48.246;9.220;2023-04-30T17:15:37;94103.81;;;14.87;52.08
73600;BME280;61877;48.246;9.220;2023-04-30T17:18:05;94105.25;;;15.07;51.99
73600;BME280;61877;48.246;9.220;2023-04-30T17:20:31;94111.28;;;14.97;51.71
73600;BME280;61877;48.246;9.220;2023-04-30T17:22:57;94107.31;;;14.91;51.78
73600;BME280;61877;48.246;9.220;2023-04-30T17:25:23;94113.56;;;14.95;53.38
73600;BME280;61877;48.246;9.220;2023-04-30T17:27:48;94116.53;;;14.86;52.55
73600;BME280;61877;48.246;9.220;2023-04-30T17:30:14;94115.34;;;14.84;52.87
73600;BME280;61877;48.246;9.220;2023-04-30T17:32:42;94120.69;;;14.80;54.25
73600;BME280;61877;48.246;9.220;2023-04-30T17:35:13;94113.13;;;14.67;52.94
73600;BME280;61877;48.246;9.220;2023-04-30T17:37:41;94118.16;;;14.68;53.62
73600;BME280;61877;48.246;9.220;2023-04-30T17:40:10;94129.56;;;14.58;53.54
73600;BME280;61877;48.246;9.220;2023-04-30T17:42:37;94133.00;;;14.55;54.25
73600;BME280;61877;48.246;9.220;2023-04-30T17:45:05;94131.63;;;14.42;54.39
73600;BME280;61877;48.246;9.220;2023-04-30T17:47:34;94133.53;;;14.42;53.51
73600;BME280;61877;48.246;9.220;2023-04-30T17:50:01;94133.41;;;14.35;54.78
73600;BME280;61877;48.246;9.220;2023-04-30T17:52:29;94128.78;;;14.35;54.07
73600;BME280;61877;48.246;9.220;2023-04-30T17:54:57;94134.84;;;14.29;54.40
73600;BME280;61877;48.246;9.220;2023-04-30T17:57:24;94129.59;;;14.16;54.26
73600;BME280;61877;48.246;9.220;2023-04-30T17:59:50;94136.06;;;14.12;54.87
73600;BME280;61877;48.246;9.220;2023-04-30T18:02:16;94130.31;;;14.13;55.11
73600;BME280;61877;48.246;9.220;2023-04-30T18:04:42;94126.13;;;13.97;54.46
73600;BME280;61877;48.246;9.220;2023-04-30T18:07:07;94132.91;;;13.87;54.98
73600;BME280;61877;48.246;9.220;2023-04-30T18:09:36;94133.63;;;13.84;56.61
73600;BME280;61877;48.246;9.220;2023-04-30T18:12:02;94133.94;;;13.83;55.36
73600;BME280;61877;48.246;9.220;2023-04-30T18:14:27;94135.53;;;13.84;58.15
73600;BME280;61877;48.246;9.220;2023-04-30T18:16:53;94136.94;;;13.78;56.06
73600;BME280;61877;48.246;9.220;2023-04-30T18:19:21;94138.72;;;13.70;56.11
73600;BME280;61877;48.246;9.220;2023-04-30T18:21:47;94135.16;;;13.66;56.91
73600;BME280;61877;48.246;9.220;2023-04-30T18:24:14;94131.63;;;13.62;57.31
73600;BME280;61877;48.246;9.220;2023-04-30T18:26:41;94133.47;;;13.58;58.04
73600;BME280;61877;48.246;9.220;2023-04-30T18:29:07;94126.78;;;13.52;58.83
73600;BME280;61877;48.246;9.220;2023-04-30T18:31:35;94140.19;;;13.49;59.64
73600;BME280;61877;48.246;9.220;2023-04-30T18:34:01;94133.19;;;13.44;57.44
73600;BME280;61877;48.246;9.220;2023-04-30T18:36:27;94133.91;;;13.41;59.13
73600;BME280;61877;48.246;9.220;2023-04-30T18:38:53;94127.91;;;13.32;57.56
73600;BME280;61877;48.246;9.220;2023-04-30T18:41:20;94131.31;;;13.29;57.47
73600;BME280;61877;48.246;9.220;2023-04-30T18:43:49;94136.53;;;13.22;59.37
73600;BME280;61877;48.246;9.220;2023-04-30T18:46:16;94138.66;;;13.13;59.07
73600;BME280;61877;48.246;9.220;2023-04-30T18:48:41;94138.66;;;13.13;59.64
73600;BME280;61877;48.246;9.220;2023-04-30T18:51:07;94146.31;;;13.11;59.61
73600;BME280;61877;48.246;9.220;2023-04-30T18:53:34;94143.19;;;13.09;59.17
73600;BME280;61877;48.246;9.220;2023-04-30T18:55:59;94143.81;;;13.03;57.78
73600;BME280;61877;48.246;9.220;2023-04-30T18:58:24;94143.19;;;13.09;57.62
73600;BME280;61877;48.246;9.220;2023-04-30T19:00:55;94151.97;;;13.06;58.28
73600;BME280;61877;48.246;9.220;2023-04-30T19:03:20;94153.53;;;13.07;59.34
73600;BME280;61877;48.246;9.220;2023-04-30T19:05:46;94151.53;;;13.04;59.31
73600;BME280;61877;48.246;9.220;2023-04-30T19:08:11;94151.09;;;13.02;59.93
73600;BME280;61877;48.246;9.220;2023-04-30T19:10:36;94151.34;;;12.97;58.88
73600;BME280;61877;48.246;9.220;2023-04-30T19:13:02;94155.16;;;12.96;59.89
73600;BME280;61877;48.246;9.220;2023-04-30T19:15:27;94161.53;;;12.88;58.61
73600;BME280;61877;48.246;9.220;2023-04-30T19:17:54;94153.84;;;12.90;58.37
73600;BME280;61877;48.246;9.220;2023-04-30T19:20:20;94151.16;;;12.90;59.62
73600;BME280;61877;48.246;9.220;2023-04-30T19:22:45;94149.63;;;12.89;59.73
73600;BME280;61877;48.246;9.220;2023-04-30T19:25:11;94157.25;;;12.87;59.97
73600;BME280;61877;48.246;9.220;2023-04-30T19:27:36;94147.19;;;12.84;58.48
73600;BME280;61877;48.246;9.220;2023-04-30T19:30:02;94152.13;;;12.82;59.01
73600;BME280;61877;48.246;9.220;2023-04-30T19:32:28;94154.06;;;12.81;59.77
73600;BME280;61877;48.246;9.220;2023-04-30T19:34:55;94155.09;;;12.77;59.16
73600;BME280;61877;48.246;9.220;2023-04-30T19:37:20;94148.41;;;12.71;60.38
73600;BME280;61877;48.246;9.220;2023-04-30T19:39:45;94156.41;;;12.67;61.67
73600;BME280;61877;48.246;9.220;2023-04-30T19:42:11;94160.59;;;12.65;61.78
73600;BME280;61877;48.246;9.220;2023-04-30T19:44:37;94155.72;;;12.55;63.14
73600;BME280;61877;48.246;9.220;2023-04-30T19:47:02;94160.31;;;12.54;63.92
73600;BME280;61877;48.246;9.220;2023-04-30T19:49:27;94154.84;;;12.51;61.92
73600;BME280;61877;48.246;9.220;2023-04-30T19:51:57;94154.66;;;12.44;63.48
73600;BME280;61877;48.246;9.220;2023-04-30T19:54:22;94155.44;;;12.44;63.10
73600;BME280;61877;48.246;9.220;2023-04-30T19:56:48;94156.06;;;12.38;64.70
73600;BME280;61877;48.246;9.220;2023-04-30T19:59:14;94153.19;;;12.31;65.52
73600;BME280;61877;48.246;9.220;2023-04-30T20:01:41;94151.19;;;12.28;62.35
73600;BME280;61877;48.246;9.220;2023-04-30T20:04:06;94142.69;;;12.26;64.01
73600;BME280;61877;48.246;9.220;2023-04-30T20:06:31;94146.41;;;12.21;65.21
73600;BME280;61877;48.246;9.220;2023-04-30T20:08:59;94150.75;;;12.10;66.33
73600;BME280;61877;48.246;9.220;2023-04-30T20:11:26;94147.50;;;12.05;65.90
73600;BME280;61877;48.246;9.220;2023-04-30T20:13:53;94148.22;;;12.02;67.78
73600;BME280;61877;48.246;9.220;2023-04-30T20:16:21;94156.53;;;11.97;67.80
73600;BME280;61877;48.246;9.220;2023-04-30T20:18:47;94150.16;;;11.89;68.34
73600;BME280;61877;48.246;9.220;2023-04-30T20:21:12;94147.72;;;11.84;68.70
73600;BME280;61877;48.246;9.220;2023-04-30T20:23:39;94154.91;;;11.80;68.89